createdAt,value
2019-03-25T00:02:04.917Z,10.63
2019-03-25T00:04:33.648Z,9.47
2019-03-25T00:07:02.240Z,10.07
2019-03-25T00:09:30.779Z,11.00
2019-03-25T00:11:59.349Z,10.00
2019-03-25T00:14:27.805Z,11.70
2019-03-25T00:16:56.341Z,10.93
2019-03-25T00:19:24.841Z,11.30
2019-03-25T00:21:53.307Z,14.40
2019-03-25T00:24:21.838Z,14.77
2019-03-25T00:26:50.415Z,10.33
2019-03-25T00:29:18.936Z,10.43
2019-03-25T00:31:47.449Z,14.60
2019-03-25T00:34:16.164Z,10.50
2019-03-25T00:36:44.683Z,17.67
2019-03-25T00:39:13.127Z,17.73
2019-03-25T00:41:41.697Z,15.93
2019-03-25T00:44:10.156Z,15.07
2019-03-25T00:46:38.620Z,10.50
2019-03-25T00:49:07.351Z,15.37
2019-03-25T00:51:35.877Z,16.77
2019-03-25T00:54:04.601Z,12.50
2019-03-25T00:56:33.143Z,14.90
2019-03-25T00:59:01.681Z,10.83
2019-03-25T01:01:30.127Z,15.13
2019-03-25T01:03:58.711Z,12.93
2019-03-25T01:06:27.241Z,14.27
2019-03-25T01:08:55.684Z,9.77
2019-03-25T01:11:24.244Z,17.60
2019-03-25T01:13:52.697Z,9.63
2019-03-25T01:16:21.141Z,11.27
2019-03-25T01:18:49.651Z,14.10
2019-03-25T01:21:18.102Z,13.97
2019-03-25T01:23:46.555Z,13.23
2019-03-25T01:26:15.054Z,12.80
2019-03-25T01:28:43.573Z,11.40
2019-03-25T01:31:12.033Z,17.80
2019-03-25T01:33:40.680Z,11.07
2019-03-25T01:36:09.158Z,12.00
2019-03-25T01:38:37.608Z,13.67
2019-03-25T01:41:06.175Z,15.37
2019-03-25T01:43:34.635Z,12.17
2019-03-25T01:46:03.093Z,12.43
2019-03-25T01:48:31.594Z,20.97
2019-03-25T01:51:00.096Z,16.27
2019-03-25T01:53:28.572Z,12.13
2019-03-25T01:55:57.145Z,11.47
2019-03-25T01:58:25.607Z,13.53
2019-03-25T02:00:54.051Z,12.30
2019-03-25T02:03:22.588Z,16.80
2019-03-25T02:05:51.041Z,15.37
2019-03-25T02:08:19.513Z,22.20
2019-03-25T02:10:48.011Z,9.90
2019-03-25T02:13:16.478Z,11.33
2019-03-25T02:15:44.994Z,14.70
2019-03-25T02:18:13.481Z,13.87
2019-03-25T02:20:41.935Z,11.23
2019-03-25T02:23:10.511Z,13.23
2019-03-25T02:25:39.109Z,16.27
2019-03-25T02:28:08.132Z,18.57
2019-03-25T02:30:36.585Z,14.13
2019-03-25T02:33:05.289Z,17.73
2019-03-25T02:35:33.809Z,16.53
2019-03-25T02:38:02.335Z,11.30
2019-03-25T02:40:30.928Z,15.77
2019-03-25T02:42:59.507Z,15.53
2019-03-25T02:45:28.025Z,18.97
2019-03-25T02:47:56.546Z,14.70
2019-03-25T02:50:25.081Z,16.30
2019-03-25T02:52:53.597Z,16.73
2019-03-25T02:55:22.191Z,15.80
2019-03-25T02:57:50.742Z,20.90
2019-03-25T03:00:25.115Z,14.90
2019-03-25T03:02:53.824Z,20.33
2019-03-25T03:05:22.309Z,17.20
2019-03-25T03:07:51.075Z,16.73
2019-03-25T03:10:19.619Z,17.47
2019-03-25T03:12:48.073Z,18.33
2019-03-25T03:15:16.603Z,20.97
2019-03-25T03:17:45.180Z,20.13
2019-03-25T03:20:13.780Z,22.10
2019-03-25T03:22:42.307Z,18.63
2019-03-25T03:25:12.554Z,18.93
2019-03-25T03:27:41.070Z,19.17
2019-03-25T03:30:29.442Z,22.50
2019-03-25T03:32:58.038Z,20.43
2019-03-25T03:35:26.569Z,16.47
2019-03-25T03:37:55.151Z,18.47
2019-03-25T03:40:23.674Z,18.07
2019-03-25T03:42:52.141Z,25.20
2019-03-25T03:45:20.708Z,17.63
2019-03-25T03:47:49.228Z,25.77
2019-03-25T03:50:23.448Z,18.50
2019-03-25T03:52:51.964Z,15.13
2019-03-25T03:55:20.558Z,19.37
2019-03-25T03:57:49.172Z,20.93
2019-03-25T04:00:20.747Z,17.60
2019-03-25T04:02:49.202Z,21.40
2019-03-25T04:05:17.718Z,17.77
2019-03-25T04:07:46.238Z,19.70
2019-03-25T04:10:14.754Z,18.17
2019-03-25T04:12:43.282Z,23.20
2019-03-25T04:15:15.009Z,15.40
2019-03-25T04:17:43.466Z,18.13
2019-03-25T04:20:12.258Z,14.80
2019-03-25T04:22:40.930Z,21.87
2019-03-25T04:25:09.521Z,21.57
2019-03-25T04:27:37.971Z,17.00
2019-03-25T04:30:06.828Z,16.83
2019-03-25T04:32:35.317Z,10.53
2019-03-25T04:35:04.272Z,3.07
2019-03-25T04:37:32.786Z,3.87
2019-03-25T04:40:01.322Z,4.20
2019-03-25T04:42:29.871Z,3.77
2019-03-25T04:44:58.525Z,4.93
2019-03-25T04:47:26.976Z,9.90
2019-03-25T04:49:55.418Z,6.33
2019-03-25T04:52:23.916Z,4.63
2019-03-25T04:54:52.350Z,8.37
2019-03-25T04:57:20.803Z,5.93
2019-03-25T04:59:49.412Z,5.47
2019-03-25T05:02:18.137Z,6.00
2019-03-25T05:04:46.661Z,4.50
2019-03-25T05:07:15.152Z,5.13
2019-03-25T05:09:43.617Z,5.53
2019-03-25T05:12:12.140Z,3.30
2019-03-25T05:14:40.664Z,4.37
2019-03-25T05:17:09.132Z,3.77
2019-03-25T05:19:37.580Z,4.23
2019-03-25T05:22:06.164Z,5.03
2019-03-25T05:24:34.622Z,1.83
2019-03-25T05:27:03.100Z,0.50
2019-03-25T05:29:31.622Z,0.37
2019-03-25T05:32:00.137Z,0.50
2019-03-25T05:34:28.574Z,0.40
2019-03-25T05:36:57.061Z,3.13
2019-03-25T05:39:25.516Z,1.33
2019-03-25T05:41:53.962Z,0.30
2019-03-25T05:44:22.467Z,0.20
2019-03-25T05:46:50.918Z,0.40
2019-03-25T05:49:19.369Z,0.50
2019-03-25T05:51:47.860Z,0.60
2019-03-25T05:54:16.323Z,0.60
2019-03-25T05:56:44.781Z,0.63
2019-03-25T05:59:13.391Z,0.70
2019-03-25T06:01:44.058Z,1.00
2019-03-25T06:04:12.022Z,0.90
2019-03-25T06:06:40.516Z,0.90
2019-03-25T06:09:08.960Z,0.90
2019-03-25T06:11:37.706Z,1.23
2019-03-25T06:14:06.212Z,1.00
2019-03-25T06:16:34.669Z,1.77
2019-03-25T06:19:03.114Z,1.00
2019-03-25T06:21:31.609Z,1.10
2019-03-25T06:24:00.094Z,1.37
2019-03-25T06:26:28.548Z,1.00
2019-03-25T06:28:57.049Z,1.40
2019-03-25T06:31:25.506Z,1.13
2019-03-25T06:33:54.030Z,1.20
2019-03-25T06:36:22.569Z,1.10
2019-03-25T06:38:51.020Z,1.23
2019-03-25T06:41:19.488Z,1.87
2019-03-25T06:43:47.984Z,1.30
2019-03-25T06:46:16.511Z,1.40
2019-03-25T06:48:44.961Z,1.10
2019-03-25T06:51:13.458Z,1.30
2019-03-25T06:53:41.906Z,1.50
2019-03-25T06:56:10.836Z,2.40
2019-03-25T06:58:39.341Z,1.53
2019-03-25T07:01:07.805Z,1.13
2019-03-25T07:03:36.300Z,1.40
2019-03-25T07:06:04.862Z,1.10
2019-03-25T07:08:33.323Z,0.73
2019-03-25T07:11:21.212Z,0.80
2019-03-25T07:13:49.664Z,1.00
2019-03-25T07:16:18.199Z,1.20
2019-03-25T07:18:46.704Z,1.00
2019-03-25T07:21:15.164Z,1.03
2019-03-25T07:23:43.615Z,1.00
2019-03-25T07:26:12.301Z,1.20
2019-03-25T07:28:40.756Z,1.17
2019-03-25T07:31:09.295Z,1.60
2019-03-25T07:33:37.836Z,1.10
2019-03-25T07:36:06.357Z,2.17
2019-03-25T07:38:34.812Z,3.17
2019-03-25T07:41:03.325Z,1.40
2019-03-25T07:43:31.775Z,1.33
2019-03-25T07:46:00.380Z,2.50
2019-03-25T07:48:28.873Z,1.70
2019-03-25T07:50:57.401Z,3.23
2019-03-25T07:53:25.936Z,3.13
2019-03-25T07:55:54.425Z,3.30
2019-03-25T07:58:22.976Z,2.93
2019-03-25T08:00:51.513Z,1.43
2019-03-25T08:03:20.144Z,0.90
2019-03-25T08:05:48.684Z,0.87
2019-03-25T08:08:17.269Z,1.20
2019-03-25T08:10:45.791Z,0.80
2019-03-25T08:13:14.444Z,1.10
2019-03-25T08:15:43.076Z,0.73
2019-03-25T08:18:12.159Z,0.97
2019-03-25T08:20:40.645Z,1.30
2019-03-25T08:23:09.099Z,1.30
2019-03-25T08:25:37.545Z,1.67
2019-03-25T08:28:06.045Z,1.20
2019-03-25T08:30:34.496Z,2.63
2019-03-25T08:33:02.951Z,1.23
2019-03-25T08:35:31.539Z,1.10
2019-03-25T08:38:00.065Z,1.10
2019-03-25T08:40:28.659Z,1.10
2019-03-25T08:42:57.171Z,1.00
2019-03-25T08:45:25.820Z,1.10
2019-03-25T08:47:54.315Z,1.53
2019-03-25T08:50:22.881Z,1.27
2019-03-25T08:52:51.321Z,1.23
2019-03-25T08:55:19.782Z,1.20
2019-03-25T08:57:48.360Z,1.20
2019-03-25T09:00:17.262Z,1.20
2019-03-25T09:02:45.725Z,1.40
2019-03-25T09:05:14.567Z,1.40
2019-03-25T09:07:43.014Z,1.30
2019-03-25T09:10:14.723Z,1.67
2019-03-25T09:12:43.317Z,1.50
2019-03-25T09:15:12.670Z,3.13
2019-03-25T09:17:41.197Z,1.43
2019-03-25T09:20:32.088Z,1.50
2019-03-25T09:23:00.567Z,1.30
2019-03-25T09:25:29.028Z,1.40
2019-03-25T09:27:58.585Z,1.63
2019-03-25T09:30:52.516Z,1.50
2019-03-25T09:33:21.717Z,1.73
2019-03-25T09:35:50.397Z,1.50
2019-03-25T09:38:38.304Z,1.90
2019-03-25T09:41:06.823Z,2.20
2019-03-25T09:43:35.345Z,2.10
2019-03-25T09:46:04.100Z,1.83
2019-03-25T09:48:32.569Z,2.30
2019-03-25T09:51:01.209Z,2.10
2019-03-25T09:53:29.788Z,2.67
2019-03-25T09:55:58.442Z,2.00
2019-03-25T09:58:35.833Z,1.90
2019-03-25T10:00:57.124Z,2.20
2019-03-25T10:03:25.589Z,2.20
2019-03-25T10:05:54.176Z,2.37
2019-03-25T10:08:22.693Z,2.20
2019-03-25T10:10:51.231Z,2.07
2019-03-25T10:13:19.762Z,1.67
2019-03-25T10:15:48.255Z,2.20
2019-03-25T10:18:16.699Z,2.13
2019-03-25T10:20:45.162Z,2.40
2019-03-25T10:23:13.735Z,1.43
2019-03-25T10:25:42.321Z,2.10
2019-03-25T10:28:11.504Z,2.30
2019-03-25T10:30:40.013Z,3.03
2019-03-25T10:33:08.468Z,3.20
2019-03-25T10:35:36.925Z,4.17
2019-03-25T10:38:05.412Z,3.60
2019-03-25T10:40:33.876Z,3.60
2019-03-25T10:43:02.403Z,5.00
2019-03-25T10:45:30.987Z,4.67
2019-03-25T10:47:59.448Z,7.00
2019-03-25T10:50:27.901Z,8.03
2019-03-25T10:52:56.397Z,9.37
2019-03-25T10:55:24.855Z,7.13
2019-03-25T10:57:53.377Z,6.93
2019-03-25T11:00:22.215Z,7.50
2019-03-25T11:02:50.837Z,9.53
2019-03-25T11:05:19.495Z,10.60
2019-03-25T11:07:48.005Z,9.63
2019-03-25T11:10:16.798Z,9.93
2019-03-25T11:12:45.322Z,7.80
2019-03-25T11:15:14.274Z,5.73
2019-03-25T11:17:42.718Z,4.63
2019-03-25T11:20:14.481Z,4.13
2019-03-25T11:22:42.972Z,4.23
2019-03-25T11:25:11.890Z,3.80
2019-03-25T11:27:40.409Z,4.03
2019-03-25T11:30:11.369Z,4.30
2019-03-25T11:32:39.890Z,4.63
2019-03-25T11:35:09.774Z,6.83
2019-03-25T11:37:38.362Z,5.80
2019-03-25T11:40:09.091Z,4.43
2019-03-25T11:42:37.694Z,3.90
2019-03-25T11:45:10.381Z,4.20
2019-03-25T11:47:38.935Z,4.47
2019-03-25T11:50:10.420Z,5.63
2019-03-25T11:52:38.941Z,4.93
2019-03-25T11:55:08.052Z,4.57
2019-03-25T11:57:36.654Z,3.80
2019-03-25T12:00:08.051Z,3.67
2019-03-25T12:02:36.629Z,3.80
2019-03-25T12:05:07.031Z,4.27
2019-03-25T12:07:35.556Z,4.63
2019-03-25T12:10:07.768Z,3.97
2019-03-25T12:12:36.227Z,6.40
2019-03-25T12:15:07.478Z,5.73
2019-03-25T12:17:35.998Z,5.47
2019-03-25T12:20:06.419Z,3.40
2019-03-25T12:22:34.983Z,3.43
2019-03-25T12:25:03.800Z,2.87
2019-03-25T12:27:32.409Z,2.67
2019-03-25T12:30:01.080Z,2.57
2019-03-25T12:32:29.603Z,2.43
2019-03-25T12:34:58.131Z,2.30
2019-03-25T12:37:26.640Z,2.53
2019-03-25T12:39:55.090Z,2.03
2019-03-25T12:42:23.541Z,4.17
2019-03-25T12:44:52.063Z,1.77
2019-03-25T12:47:20.591Z,2.70
2019-03-25T12:49:49.043Z,1.83
2019-03-25T12:52:17.642Z,2.57
2019-03-25T12:54:46.086Z,1.87
2019-03-25T12:57:14.604Z,2.63
2019-03-25T12:59:43.093Z,2.40
2019-03-25T13:02:13.205Z,5.17
2019-03-25T13:04:41.731Z,3.03
2019-03-25T13:07:10.226Z,3.43
2019-03-25T13:09:38.694Z,2.00
2019-03-25T13:12:07.271Z,2.10
2019-03-25T13:14:35.758Z,2.17
2019-03-25T13:17:04.318Z,2.00
2019-03-25T13:19:32.831Z,1.87
2019-03-25T13:22:20.668Z,1.30
2019-03-25T13:24:49.128Z,1.27
2019-03-25T13:27:17.647Z,1.30
2019-03-25T13:29:52.444Z,1.13
2019-03-25T13:32:16.516Z,1.13
2019-03-25T13:34:44.971Z,1.00
2019-03-25T13:37:13.540Z,2.77
2019-03-25T13:39:42.008Z,1.63
2019-03-25T13:42:10.671Z,1.43
2019-03-25T13:44:39.205Z,1.03
2019-03-25T13:47:07.658Z,1.10
2019-03-25T13:49:36.127Z,0.97
2019-03-25T13:52:04.887Z,1.10
2019-03-25T13:54:33.340Z,1.10
2019-03-25T13:57:02.214Z,1.37
2019-03-25T13:59:30.846Z,1.40
2019-03-25T14:01:59.374Z,0.80
2019-03-25T14:04:27.823Z,2.30
2019-03-25T14:06:56.381Z,0.87
2019-03-25T14:09:24.841Z,0.70
2019-03-25T14:11:53.284Z,1.43
2019-03-25T14:14:21.794Z,1.00
2019-03-25T14:16:50.251Z,0.80
2019-03-25T14:19:18.787Z,1.07
2019-03-25T14:21:47.351Z,0.80
2019-03-25T14:24:15.808Z,0.70
2019-03-25T14:26:44.336Z,2.30
2019-03-25T14:29:12.938Z,0.80
2019-03-25T14:31:41.465Z,2.70
2019-03-25T14:34:09.995Z,0.70
2019-03-25T14:36:38.675Z,0.80
2019-03-25T14:39:07.568Z,2.10
2019-03-25T14:41:36.092Z,2.67
2019-03-25T14:44:04.856Z,1.07
2019-03-25T14:46:33.353Z,1.70
2019-03-25T14:49:01.828Z,1.63
2019-03-25T14:51:30.323Z,1.00
2019-03-25T14:53:58.773Z,2.13
2019-03-25T14:56:27.222Z,1.00
2019-03-25T14:58:55.707Z,2.30
2019-03-25T15:01:24.241Z,1.43
2019-03-25T15:03:52.694Z,1.20
2019-03-25T15:06:21.294Z,1.30
2019-03-25T15:08:49.821Z,1.17
2019-03-25T15:11:18.437Z,1.17
2019-03-25T15:13:47.036Z,1.60
2019-03-25T15:16:15.694Z,1.83
2019-03-25T15:18:44.211Z,1.20
2019-03-25T15:21:12.789Z,1.10
2019-03-25T15:23:41.259Z,1.50
2019-03-25T15:26:09.882Z,3.20
2019-03-25T15:28:38.384Z,1.47
2019-03-25T15:31:07.008Z,1.17
2019-03-25T15:33:35.655Z,0.83
2019-03-25T15:36:04.187Z,1.17
2019-03-25T15:38:32.797Z,0.87
2019-03-25T15:41:03.735Z,2.27
2019-03-25T15:43:32.280Z,1.53
2019-03-25T15:46:01.204Z,1.10
2019-03-25T15:48:29.815Z,1.00
2019-03-25T15:50:58.358Z,1.17
2019-03-25T15:53:28.690Z,1.40
2019-03-25T15:55:57.127Z,2.50
2019-03-25T15:58:26.462Z,1.07
2019-03-25T16:00:55.080Z,0.90
2019-03-25T16:03:23.645Z,2.63
2019-03-25T16:05:52.674Z,1.10
2019-03-25T16:08:21.148Z,1.47
2019-03-25T16:10:51.658Z,1.13
2019-03-25T16:13:19.911Z,1.00
2019-03-25T16:15:48.512Z,1.83
2019-03-25T16:18:34.706Z,1.53
2019-03-25T16:21:22.506Z,1.80
2019-03-25T16:23:51.018Z,1.20
2019-03-25T16:26:19.535Z,1.10
2019-03-25T16:28:47.994Z,2.67
2019-03-25T16:31:16.490Z,1.87
2019-03-25T16:33:45.015Z,1.77
2019-03-25T16:36:14.028Z,1.83
2019-03-25T16:38:42.539Z,1.43
2019-03-25T16:41:11.154Z,1.50
2019-03-25T16:43:39.694Z,2.13
2019-03-25T16:46:08.306Z,2.50
2019-03-25T16:48:36.885Z,1.63
2019-03-25T16:51:05.565Z,3.53
2019-03-25T16:53:34.236Z,3.93
2019-03-25T16:56:02.838Z,3.17
2019-03-25T16:58:31.395Z,4.37
2019-03-25T17:01:09.547Z,2.83
2019-03-25T17:03:30.062Z,7.77
2019-03-25T17:05:58.522Z,3.10
2019-03-25T17:08:27.025Z,4.33
2019-03-25T17:10:56.684Z,3.70
2019-03-25T17:13:25.432Z,6.93
2019-03-25T17:15:54.024Z,2.10
2019-03-25T17:18:22.491Z,6.00
2019-03-25T17:20:50.942Z,3.90
2019-03-25T17:23:19.542Z,3.03
2019-03-25T17:25:52.875Z,2.63
2019-03-25T17:28:18.206Z,2.83
2019-03-25T17:30:46.774Z,5.90
2019-03-25T17:33:15.227Z,5.40
2019-03-25T17:35:43.949Z,6.73
2019-03-25T17:38:12.671Z,4.33
2019-03-25T17:40:41.252Z,3.60
2019-03-25T17:43:09.708Z,3.27
2019-03-25T17:45:38.277Z,10.77
2019-03-25T17:48:06.792Z,4.60
2019-03-25T17:50:35.261Z,4.17
2019-03-25T17:53:03.758Z,5.50
2019-03-25T17:55:33.855Z,5.20
2019-03-25T17:58:02.366Z,4.17
2019-03-25T18:00:48.877Z,6.00
2019-03-25T18:03:17.333Z,4.97
2019-03-25T18:05:45.807Z,6.60
2019-03-25T18:08:14.646Z,4.47
2019-03-25T18:10:43.098Z,8.70
2019-03-25T18:13:21.742Z,6.43
2019-03-25T18:15:41.846Z,5.97
2019-03-25T18:18:10.295Z,5.80
2019-03-25T18:20:38.779Z,5.33
2019-03-25T18:23:07.331Z,9.00
2019-03-25T18:25:35.859Z,3.43
2019-03-25T18:28:04.450Z,6.10
2019-03-25T18:30:34.671Z,5.17
2019-03-25T18:33:03.376Z,12.57
2019-03-25T18:35:31.842Z,6.40
2019-03-25T18:38:00.348Z,7.17
2019-03-25T18:40:28.945Z,6.67
2019-03-25T18:42:57.483Z,9.77
2019-03-25T18:45:25.997Z,5.40
2019-03-25T18:47:54.710Z,5.23
2019-03-25T18:50:23.247Z,6.70
2019-03-25T18:52:51.938Z,7.80
2019-03-25T18:55:20.413Z,6.77
2019-03-25T18:57:48.871Z,5.80
2019-03-25T19:00:34.086Z,7.00
2019-03-25T19:03:03.147Z,7.10
2019-03-25T19:05:32.019Z,5.33
2019-03-25T19:08:03.815Z,7.43
2019-03-25T19:10:32.682Z,6.10
2019-03-25T19:13:01.129Z,4.13
2019-03-25T19:15:29.720Z,10.57
2019-03-25T19:17:58.286Z,8.70
2019-03-25T19:20:26.773Z,5.70
2019-03-25T19:22:55.540Z,4.30
2019-03-25T19:25:24.069Z,5.30
2019-03-25T19:27:52.781Z,6.27
2019-03-25T19:30:21.383Z,5.40
2019-03-25T19:32:49.910Z,9.07
2019-03-25T19:35:18.446Z,8.57
2019-03-25T19:37:47.032Z,5.83
2019-03-25T19:40:15.929Z,5.73
2019-03-25T19:42:44.391Z,5.07
2019-03-25T19:45:14.807Z,5.80
2019-03-25T19:47:43.358Z,5.23
2019-03-25T19:50:12.833Z,5.57
2019-03-25T19:52:41.401Z,8.23
2019-03-25T19:55:10.109Z,8.93
2019-03-25T19:57:38.579Z,7.27
2019-03-25T20:00:08.863Z,5.17
2019-03-25T20:02:37.323Z,4.97
2019-03-25T20:05:08.897Z,4.43
2019-03-25T20:07:38.161Z,5.80
2019-03-25T20:10:07.591Z,5.90
2019-03-25T20:12:36.113Z,6.57
2019-03-25T20:15:07.078Z,5.10
2019-03-25T20:17:35.660Z,6.83
2019-03-25T20:20:06.918Z,8.27
2019-03-25T20:22:35.590Z,10.20
2019-03-25T20:25:06.160Z,8.70
2019-03-25T20:27:34.715Z,7.37
2019-03-25T20:30:23.177Z,6.10
2019-03-25T20:32:51.647Z,3.27
2019-03-25T20:35:20.176Z,6.33
2019-03-25T20:37:48.756Z,5.67
2019-03-25T20:40:38.127Z,5.43
2019-03-25T20:43:07.121Z,7.23
2019-03-25T20:45:35.631Z,5.20
2019-03-25T20:48:04.195Z,5.50
2019-03-25T20:50:32.893Z,6.37
2019-03-25T20:53:01.409Z,9.40
2019-03-25T20:55:29.934Z,4.67
2019-03-25T20:57:58.650Z,6.10
2019-03-25T21:01:09.129Z,4.80
2019-03-25T21:03:37.808Z,6.60
2019-03-25T21:06:06.432Z,2.50
2019-03-25T21:08:34.942Z,6.43
2019-03-25T21:11:03.792Z,4.30
2019-03-25T21:13:32.422Z,3.77
2019-03-25T21:16:00.883Z,4.60
2019-03-25T21:18:29.482Z,7.93
2019-03-25T21:20:58.058Z,6.87
2019-03-25T21:23:26.602Z,8.87
2019-03-25T21:25:55.212Z,5.77
2019-03-25T21:28:23.740Z,7.77
2019-03-25T21:30:52.583Z,9.30
2019-03-25T21:33:21.213Z,10.40
2019-03-25T21:35:49.775Z,7.17
2019-03-25T21:38:18.351Z,7.73
2019-03-25T21:40:47.082Z,8.97
2019-03-25T21:43:15.633Z,6.37
2019-03-25T21:45:44.277Z,6.43
2019-03-25T21:48:12.815Z,3.73
2019-03-25T21:50:41.391Z,3.17
2019-03-25T21:53:09.893Z,5.80
2019-03-25T21:55:38.448Z,9.13
2019-03-25T21:58:06.979Z,6.23
2019-03-25T22:00:35.516Z,8.13
2019-03-25T22:03:11.289Z,5.77
2019-03-25T22:05:34.411Z,8.13
2019-03-25T22:08:03.024Z,3.53
2019-03-25T22:10:31.563Z,7.77
2019-03-25T22:13:19.514Z,8.27
2019-03-25T22:15:48.132Z,6.00
2019-03-25T22:18:18.120Z,7.27
2019-03-25T22:20:46.566Z,5.17
2019-03-25T22:23:15.064Z,7.97
2019-03-25T22:25:43.702Z,9.20
2019-03-25T22:28:12.542Z,7.83
2019-03-25T22:30:41.177Z,7.10
2019-03-25T22:33:09.620Z,6.40
2019-03-25T22:35:38.076Z,7.63
2019-03-25T22:38:06.649Z,8.47
2019-03-25T22:40:35.174Z,9.73
2019-03-25T22:43:03.754Z,9.23
2019-03-25T22:45:32.611Z,9.43
2019-03-25T22:48:01.113Z,8.20
2019-03-25T22:50:31.145Z,8.33
2019-03-25T22:52:59.987Z,8.10
2019-03-25T22:55:28.579Z,4.57
2019-03-25T22:57:57.124Z,7.17
2019-03-25T23:00:27.485Z,7.17
2019-03-25T23:02:55.988Z,6.97
2019-03-25T23:05:24.500Z,9.37
2019-03-25T23:07:53.001Z,8.80
2019-03-25T23:10:21.466Z,13.40
2019-03-25T23:12:49.999Z,9.97
2019-03-25T23:15:18.503Z,8.73
2019-03-25T23:17:47.040Z,13.40
2019-03-25T23:20:16.304Z,6.13
2019-03-25T23:22:44.802Z,8.40
2019-03-25T23:25:13.278Z,9.80
2019-03-25T23:27:41.736Z,11.57
2019-03-25T23:30:10.540Z,10.27
2019-03-25T23:32:38.980Z,9.30
2019-03-25T23:35:07.802Z,15.60
2019-03-25T23:37:36.457Z,7.90
2019-03-25T23:40:08.077Z,12.73
2019-03-25T23:42:36.524Z,8.13
2019-03-25T23:45:06.866Z,8.17
2019-03-25T23:47:35.389Z,8.83
2019-03-25T23:50:05.472Z,9.47
2019-03-25T23:52:33.981Z,11.07
2019-03-25T23:55:02.447Z,8.83
2019-03-25T23:57:30.997Z,10.43
2019-03-25T23:59:59.491Z,8.37
